createdAt,value
2023-02-27T00:00:51.000Z,3.5
2023-02-27T00:04:19.000Z,3.6
2023-02-27T00:07:08.000Z,2.9
2023-02-27T00:10:36.000Z,4
2023-02-27T00:14:04.000Z,3.2
2023-02-27T00:17:32.000Z,4.5
2023-02-27T00:21:00.000Z,2.9
2023-02-27T00:24:28.000Z,3.2
2023-02-27T00:27:56.000Z,5.2
2023-02-27T00:31:24.000Z,3.6
2023-02-27T00:34:52.000Z,2.4
2023-02-27T00:38:20.000Z,5.1
2023-02-27T00:41:48.000Z,4
2023-02-27T00:44:37.000Z,3.1
2023-02-27T00:48:05.000Z,2.7
2023-02-27T00:51:33.000Z,4
2023-02-27T00:55:01.000Z,2.2
2023-02-27T00:58:29.000Z,3.6
2023-02-27T01:01:56.000Z,3.4
2023-02-27T01:05:24.000Z,3.1
2023-02-27T01:08:52.000Z,3.5
2023-02-27T01:12:20.000Z,4.2
2023-02-27T01:15:48.000Z,3.6
2023-02-27T01:19:16.000Z,4.5
2023-02-27T01:22:05.000Z,5.1
2023-02-27T01:25:33.000Z,4.1
2023-02-27T01:29:01.000Z,4.4
2023-02-27T01:32:29.000Z,5
2023-02-27T01:35:57.000Z,3.7
2023-02-27T01:39:25.000Z,5
2023-02-27T01:42:53.000Z,5.6
2023-02-27T01:46:21.000Z,3.9
2023-02-27T01:49:49.000Z,4.4
2023-02-27T01:53:17.000Z,6.4
2023-02-27T01:56:45.000Z,6.2
2023-02-27T01:59:34.000Z,4.4
2023-02-27T02:03:02.000Z,4.1
2023-02-27T02:06:30.000Z,4.3
2023-02-27T02:09:58.000Z,4.7
2023-02-27T02:13:26.000Z,2.9
2023-02-27T02:16:54.000Z,3.3
2023-02-27T02:20:22.000Z,3.2
2023-02-27T02:23:50.000Z,4.6
2023-02-27T02:27:17.000Z,4.4
2023-02-27T02:30:45.000Z,4.5
2023-02-27T02:34:13.000Z,4.3
2023-02-27T02:37:03.000Z,2.9
2023-02-27T02:40:31.000Z,3.2
2023-02-27T02:43:59.000Z,4.5
2023-02-27T02:47:27.000Z,4.1
2023-02-27T02:50:54.000Z,4.1
2023-02-27T02:54:22.000Z,3.5
2023-02-27T02:57:50.000Z,3.4
2023-02-27T03:01:18.000Z,2.6
2023-02-27T03:04:47.000Z,2.9
2023-02-27T03:08:15.000Z,2.9
2023-02-27T03:11:43.000Z,4.5
2023-02-27T03:14:32.000Z,3.5
2023-02-27T03:18:00.000Z,5.2
2023-02-27T03:21:27.000Z,3.5
2023-02-27T03:24:55.000Z,4
2023-02-27T03:28:23.000Z,5.5
2023-02-27T03:31:51.000Z,3.8
2023-02-27T03:35:19.000Z,3.9
2023-02-27T03:38:47.000Z,4.9
2023-02-27T03:42:15.000Z,3.3
2023-02-27T03:45:43.000Z,3.9
2023-02-27T03:49:11.000Z,5.5
2023-02-27T03:51:59.000Z,2.9
2023-02-27T03:55:28.000Z,3
2023-02-27T03:58:55.000Z,3.4
2023-02-27T04:02:23.000Z,3.7
2023-02-27T04:05:51.000Z,4.9
2023-02-27T04:09:19.000Z,4.2
2023-02-27T04:12:47.000Z,3.9
2023-02-27T04:16:15.000Z,4.1
2023-02-27T04:19:43.000Z,4.2
2023-02-27T04:23:10.000Z,3.7
2023-02-27T04:26:38.000Z,3
2023-02-27T04:29:27.000Z,3.7
2023-02-27T04:32:55.000Z,4.1
2023-02-27T04:36:23.000Z,6.3
2023-02-27T04:39:51.000Z,5.1
2023-02-27T04:43:19.000Z,4.6
2023-02-27T04:46:47.000Z,3.9
2023-02-27T04:50:15.000Z,3.2
2023-02-27T04:53:43.000Z,2.9
2023-02-27T04:57:10.000Z,3.1
2023-02-27T05:00:38.000Z,4.5
2023-02-27T05:04:06.000Z,3.7
2023-02-27T05:06:55.000Z,5.2
2023-02-27T05:10:23.000Z,4.5
2023-02-27T05:13:51.000Z,2.9
2023-02-27T05:17:19.000Z,4.6
2023-02-27T05:20:47.000Z,3
2023-02-27T05:24:15.000Z,3.2
2023-02-27T05:27:43.000Z,4.1
2023-02-27T05:31:11.000Z,4
2023-02-27T05:34:39.000Z,2.4
2023-02-27T05:38:07.000Z,3.4
2023-02-27T05:41:35.000Z,3.4
2023-02-27T05:44:24.000Z,2.7
2023-02-27T05:47:52.000Z,4.1
2023-02-27T05:51:20.000Z,4.5
2023-02-27T05:54:48.000Z,4.5
2023-02-27T05:58:16.000Z,3.1
2023-02-27T06:01:44.000Z,5.1
2023-02-27T06:05:12.000Z,3
2023-02-27T06:08:39.000Z,2.9
2023-02-27T06:12:07.000Z,4
2023-02-27T06:15:38.000Z,2.8
2023-02-27T06:19:06.000Z,3
2023-02-27T06:21:55.000Z,4.7
2023-02-27T06:25:22.000Z,3.7
2023-02-27T06:28:50.000Z,3.6
2023-02-27T06:32:18.000Z,6.4
2023-02-27T06:35:46.000Z,3.6
2023-02-27T06:39:14.000Z,2.4
2023-02-27T06:42:42.000Z,4.4
2023-02-27T06:46:10.000Z,3.1
2023-02-27T06:49:38.000Z,4.5
2023-02-27T06:53:06.000Z,3.5
2023-02-27T06:56:34.000Z,3.5
2023-02-27T06:59:23.000Z,4.7
2023-02-27T07:02:51.000Z,2.2
2023-02-27T07:06:19.000Z,4.1
2023-02-27T07:11:03.000Z,3.5
2023-02-27T07:14:31.000Z,2.8
2023-02-27T07:17:59.000Z,5.1
2023-02-27T07:21:27.000Z,3.1
2023-02-27T07:24:55.000Z,5.3
2023-02-27T07:28:23.000Z,3
2023-02-27T07:31:51.000Z,5.3
2023-02-27T07:35:19.000Z,6.7
2023-02-27T07:38:08.000Z,4.7
2023-02-27T07:41:36.000Z,3
2023-02-27T07:45:04.000Z,4.8
2023-02-27T07:48:31.000Z,2.9
2023-02-27T07:52:00.000Z,2
2023-02-27T07:55:28.000Z,6
2023-02-27T07:58:56.000Z,4.8
2023-02-27T08:02:24.000Z,5.3
2023-02-27T08:05:52.000Z,5.9
2023-02-27T08:09:22.000Z,10.9
2023-02-27T08:12:50.000Z,4.9
2023-02-27T08:15:39.000Z,5
2023-02-27T08:19:07.000Z,4.9
2023-02-27T08:22:35.000Z,7.5
2023-02-27T08:26:03.000Z,5.9
2023-02-27T08:29:31.000Z,5.1
2023-02-27T08:32:59.000Z,6.2
2023-02-27T08:36:27.000Z,6.5
2023-02-27T08:39:55.000Z,4.5
2023-02-27T08:43:23.000Z,4.4
2023-02-27T08:46:51.000Z,5.1
2023-02-27T08:50:19.000Z,2.5
2023-02-27T08:53:08.000Z,4.3
2023-02-27T08:56:36.000Z,6.5
2023-02-27T09:00:04.000Z,4.7
2023-02-27T09:03:32.000Z,3.9
2023-02-27T09:07:00.000Z,6.7
2023-02-27T09:10:28.000Z,4.1
2023-02-27T09:13:56.000Z,5.4
2023-02-27T09:17:24.000Z,4.6
2023-02-27T09:20:52.000Z,4
2023-02-27T09:24:20.000Z,5
2023-02-27T09:27:48.000Z,2.7
2023-02-27T09:30:37.000Z,2.3
2023-02-27T09:34:05.000Z,1.9
2023-02-27T09:37:33.000Z,0.8
2023-02-27T09:41:01.000Z,3.4
2023-02-27T09:44:28.000Z,2.2
2023-02-27T09:48:06.000Z,3.4
2023-02-27T09:51:34.000Z,3
2023-02-27T09:55:02.000Z,2.4
2023-02-27T09:58:30.000Z,1.7
2023-02-27T10:01:58.000Z,2.9
2023-02-27T10:05:26.000Z,2.2
2023-02-27T10:08:15.000Z,4.2
2023-02-27T10:11:43.000Z,1.9
2023-02-27T10:15:11.000Z,1.5
2023-02-27T10:18:40.000Z,1.5
2023-02-27T10:22:07.000Z,0.8
2023-02-27T10:25:35.000Z,3.8
2023-02-27T10:29:03.000Z,2.5
2023-02-27T10:32:33.000Z,5.1
2023-02-27T10:36:06.000Z,4.1
2023-02-27T10:43:26.000Z,2.1
2023-02-27T10:46:59.000Z,2.3
2023-02-27T10:50:31.000Z,2.2
2023-02-27T10:54:04.000Z,1.8
2023-02-27T10:57:36.000Z,1.4
2023-02-27T11:01:09.000Z,1.6
2023-02-27T11:04:42.000Z,0.9
2023-02-27T11:08:14.000Z,6
2023-02-27T11:11:47.000Z,1.6
2023-02-27T11:15:20.000Z,1.8
2023-02-27T11:18:52.000Z,1.8
2023-02-27T11:21:44.000Z,1.4
2023-02-27T11:25:16.000Z,1.9
2023-02-27T11:28:49.000Z,2.2
2023-02-27T11:32:22.000Z,1.7
2023-02-27T11:35:54.000Z,1.5
2023-02-27T11:39:27.000Z,1.5
2023-02-27T11:43:00.000Z,1.4
2023-02-27T11:46:49.000Z,1.2
2023-02-27T11:50:22.000Z,2.2
2023-02-27T11:53:55.000Z,1.5
2023-02-27T11:57:27.000Z,1.9
2023-02-27T12:00:18.000Z,2
2023-02-27T12:03:51.000Z,1.8
2023-02-27T12:07:24.000Z,3
2023-02-27T12:10:56.000Z,0.8
2023-02-27T12:14:39.000Z,1.2
2023-02-27T12:18:12.000Z,1.3
2023-02-27T12:21:45.000Z,1.5
2023-02-27T12:25:17.000Z,1.2
2023-02-27T12:28:50.000Z,1.2
2023-02-27T12:32:23.000Z,1.4
2023-02-27T12:35:55.000Z,2.4
2023-02-27T12:38:47.000Z,2.2
2023-02-27T12:42:19.000Z,1.1
2023-02-27T12:45:52.000Z,2.1
2023-02-27T12:49:25.000Z,1.4
2023-02-27T12:52:58.000Z,1.3
2023-02-27T12:56:30.000Z,1.4
2023-02-27T13:00:03.000Z,1
2023-02-27T13:03:36.000Z,1.4
2023-02-27T13:07:08.000Z,2.2
2023-02-27T13:10:41.000Z,2.2
2023-02-27T13:14:14.000Z,3.4
2023-02-27T13:17:05.000Z,4.1
2023-02-27T13:20:38.000Z,1.9
2023-02-27T13:24:10.000Z,1.4
2023-02-27T13:27:43.000Z,1.3
2023-02-27T13:31:16.000Z,2.1
2023-02-27T13:34:48.000Z,1.3
2023-02-27T13:38:23.000Z,1.5
2023-02-27T13:41:55.000Z,1.4
2023-02-27T13:45:28.000Z,2.5
2023-02-27T13:49:01.000Z,1.2
2023-02-27T13:52:37.000Z,2.6
2023-02-27T13:55:28.000Z,2.6
2023-02-27T13:59:01.000Z,3.1
2023-02-27T14:02:34.000Z,3.2
2023-02-27T14:06:23.000Z,2.3
2023-02-27T14:09:55.000Z,3.2
2023-02-27T14:13:29.000Z,3.9
2023-02-27T14:17:01.000Z,4.7
2023-02-27T14:20:34.000Z,5.4
2023-02-27T14:24:09.000Z,3.5
2023-02-27T14:27:42.000Z,1.6
2023-02-27T14:31:14.000Z,1.4
2023-02-27T14:34:06.000Z,3.1
2023-02-27T14:37:39.000Z,4.1
2023-02-27T14:41:11.000Z,4.3
2023-02-27T14:44:44.000Z,3.8
2023-02-27T14:48:17.000Z,3.6
2023-02-27T14:51:49.000Z,3.6
2023-02-27T14:55:22.000Z,3
2023-02-27T14:58:55.000Z,2.3
2023-02-27T15:02:30.000Z,1.9
2023-02-27T15:06:03.000Z,2.3
2023-02-27T15:09:36.000Z,2.2
2023-02-27T15:12:27.000Z,1.8
2023-02-27T15:15:59.000Z,1.8
2023-02-27T15:19:41.000Z,1.6
2023-02-27T15:23:14.000Z,2.7
2023-02-27T15:26:49.000Z,1.7
2023-02-27T15:30:21.000Z,3.5
2023-02-27T15:33:54.000Z,2
2023-02-27T15:37:27.000Z,2.1
2023-02-27T15:41:00.000Z,1.7
2023-02-27T15:44:32.000Z,2
2023-02-27T15:48:05.000Z,2.4
2023-02-27T15:50:56.000Z,3.6
2023-02-27T15:54:28.000Z,2.4
2023-02-27T15:58:01.000Z,3.2
2023-02-27T16:01:34.000Z,1.8
2023-02-27T16:05:06.000Z,3
2023-02-27T16:08:39.000Z,1.6
2023-02-27T16:12:12.000Z,1.8
2023-02-27T16:15:44.000Z,6.5
2023-02-27T16:19:17.000Z,8
2023-02-27T16:22:50.000Z,4.7
2023-02-27T16:26:22.000Z,3.6
2023-02-27T16:29:14.000Z,3.6
2023-02-27T16:32:47.000Z,3.5
2023-02-27T16:36:20.000Z,3.8
2023-02-27T16:39:53.000Z,2.4
2023-02-27T16:43:26.000Z,3
2023-02-27T16:46:59.000Z,2.7
2023-02-27T16:50:31.000Z,2.4
2023-02-27T16:54:04.000Z,2.6
2023-02-27T16:57:36.000Z,13.1
2023-02-27T17:01:09.000Z,15.9
2023-02-27T17:04:42.000Z,6.5
2023-02-27T17:07:33.000Z,3.7
2023-02-27T17:11:06.000Z,5.2
2023-02-27T17:14:42.000Z,7.8
2023-02-27T17:18:15.000Z,4.3
2023-02-27T17:21:47.000Z,5.9
2023-02-27T17:25:20.000Z,4.7
2023-02-27T17:28:52.000Z,15.6
2023-02-27T17:32:25.000Z,6.3
2023-02-27T17:35:58.000Z,6.5
2023-02-27T17:39:31.000Z,9
2023-02-27T17:43:03.000Z,6.1
2023-02-27T17:45:54.000Z,5.5
2023-02-27T17:49:27.000Z,7.4
2023-02-27T17:52:59.000Z,7.1
2023-02-27T17:56:32.000Z,4.8
2023-02-27T18:00:05.000Z,4.8
2023-02-27T18:03:38.000Z,5.3
2023-02-27T18:07:10.000Z,8.3
2023-02-27T18:10:43.000Z,7.3
2023-02-27T18:14:15.000Z,8.3
2023-02-27T18:17:43.000Z,11.1
2023-02-27T18:21:11.000Z,9
2023-02-27T18:24:00.000Z,4.8
2023-02-27T18:27:29.000Z,5.5
2023-02-27T18:30:57.000Z,6.2
2023-02-27T18:34:25.000Z,6.7
2023-02-27T18:37:53.000Z,5.8
2023-02-27T18:41:21.000Z,6
2023-02-27T18:44:49.000Z,6.8
2023-02-27T18:48:18.000Z,5.1
2023-02-27T18:51:46.000Z,4.3
2023-02-27T18:55:14.000Z,3.3
2023-02-27T18:58:42.000Z,2.9
2023-02-27T19:01:31.000Z,4.8
2023-02-27T19:04:59.000Z,4.3
2023-02-27T19:08:27.000Z,4.3
2023-02-27T19:11:55.000Z,3.5
2023-02-27T19:15:23.000Z,4.7
2023-02-27T19:18:51.000Z,5.3
2023-02-27T19:22:19.000Z,4.2
2023-02-27T19:25:47.000Z,18.7
2023-02-27T19:29:16.000Z,11.7
2023-02-27T19:32:44.000Z,37.7
2023-02-27T19:36:12.000Z,22.4
2023-02-27T19:39:01.000Z,10
2023-02-27T19:42:30.000Z,8.8
2023-02-27T19:45:58.000Z,5.8
2023-02-27T19:49:26.000Z,8.5
2023-02-27T19:52:54.000Z,6.3
2023-02-27T19:56:22.000Z,5.6
2023-02-27T19:59:51.000Z,6.4
2023-02-27T20:03:19.000Z,8.7
2023-02-27T20:06:47.000Z,5.7
2023-02-27T20:10:16.000Z,6.7
2023-02-27T20:13:44.000Z,5.8
2023-02-27T20:16:33.000Z,6
2023-02-27T20:20:01.000Z,9.5
2023-02-27T20:23:29.000Z,8.9
2023-02-27T20:26:58.000Z,8.1
2023-02-27T20:30:26.000Z,8.6
2023-02-27T20:33:54.000Z,7.3
2023-02-27T20:37:23.000Z,7.2
2023-02-27T20:40:51.000Z,9.4
2023-02-27T20:44:19.000Z,8.6
2023-02-27T20:47:47.000Z,7.5
2023-02-27T20:51:15.000Z,10
2023-02-27T20:54:05.000Z,7.9
2023-02-27T20:57:33.000Z,16
2023-02-27T21:01:01.000Z,8.5
2023-02-27T21:04:29.000Z,9.2
2023-02-27T21:07:57.000Z,10.1
2023-02-27T21:11:25.000Z,9.8
2023-02-27T21:14:53.000Z,9.1
2023-02-27T21:18:21.000Z,11.3
2023-02-27T21:21:49.000Z,10.1
2023-02-27T21:25:17.000Z,10.9
2023-02-27T21:28:45.000Z,7.9
2023-02-27T21:31:34.000Z,12.8
2023-02-27T21:35:02.000Z,9.1
2023-02-27T21:38:30.000Z,8.7
2023-02-27T21:41:58.000Z,8.8
2023-02-27T21:45:26.000Z,8.1
2023-02-27T21:48:54.000Z,9.9
2023-02-27T21:52:22.000Z,8.8
2023-02-27T21:55:50.000Z,9.6
2023-02-27T21:59:17.000Z,9.7
2023-02-27T22:02:45.000Z,8.1
2023-02-27T22:06:14.000Z,7.7
2023-02-27T22:09:03.000Z,7.1
2023-02-27T22:12:31.000Z,7.1
2023-02-27T22:15:59.000Z,8.3
2023-02-27T22:19:27.000Z,8.7
2023-02-27T22:22:54.000Z,9.2
2023-02-27T22:26:22.000Z,10.8
2023-02-27T22:29:50.000Z,11.3
2023-02-27T22:33:19.000Z,7.7
2023-02-27T22:36:46.000Z,9.1
2023-02-27T22:40:14.000Z,8.3
2023-02-27T22:43:42.000Z,9.3
2023-02-27T22:46:31.000Z,9.1
2023-02-27T22:49:59.000Z,9.1
2023-02-27T22:53:28.000Z,9.9
2023-02-27T22:56:56.000Z,8.6
2023-02-27T23:00:24.000Z,7.9
2023-02-27T23:03:52.000Z,8.8
2023-02-27T23:07:20.000Z,7.6
2023-02-27T23:10:48.000Z,8.9
2023-02-27T23:14:16.000Z,7.5
2023-02-27T23:17:44.000Z,7.7
2023-02-27T23:21:19.000Z,9.2
2023-02-27T23:24:09.000Z,7.6
2023-02-27T23:27:36.000Z,8.4
2023-02-27T23:31:04.000Z,7.4
2023-02-27T23:34:32.000Z,6.5
2023-02-27T23:38:10.000Z,12
2023-02-27T23:41:38.000Z,7.7
2023-02-27T23:45:05.000Z,7.4
2023-02-27T23:48:33.000Z,8.2
2023-02-27T23:52:01.000Z,7.2
2023-02-27T23:55:29.000Z,6.8
2023-02-27T23:58:57.000Z,7.4
